<?xml version="1.0" encoding="UTF-8" ?>
<gpx version="1.1" xmlns:xsi="http://www.w3.org/2001/XMLSchema-instance" 
    xmlns="http://www.topografix.com/GPX/1/1" 
    xsi:schemaLocation="http://www.topografix.com/GPX/1/1 http://www.topografix.com/GPX/1/1/gpx.xsd" 
    creator="Openrunner - https://www.openrunner.com" >	<trk>
						<name>Beauvallon - Chassagny - La Passerelle-21673948</name>
						<trkseg>
					<trkpt lat="45.609520" lon="4.726930">
						<ele>332</ele>
						<time>2025-06-16T13:48:24Z</time>
					</trkpt>
					<trkpt lat="45.609490" lon="4.727070">
						<ele>331</ele>
						<time>2025-06-16T13:48:38Z</time>
					</trkpt>
					<trkpt lat="45.609460" lon="4.727100">
						<ele>331</ele>
						<time>2025-06-16T13:48:43Z</time>
					</trkpt>
					<trkpt lat="45.609420" lon="4.727110">
						<ele>332</ele>
						<time>2025-06-16T13:48:48Z</time>
					</trkpt>
					<trkpt lat="45.609310" lon="4.727060">
						<ele>332</ele>
						<time>2025-06-16T13:49:03Z</time>
					</trkpt>
					<trkpt lat="45.609270" lon="4.727160">
						<ele>332</ele>
						<time>2025-06-16T13:49:14Z</time>
					</trkpt>
					<trkpt lat="45.609150" lon="4.727450">
						<ele>332</ele>
						<time>2025-06-16T13:49:46Z</time>
					</trkpt>
					<trkpt lat="45.609090" lon="4.727570">
						<ele>332</ele>
						<time>2025-06-16T13:49:59Z</time>
					</trkpt>
					<trkpt lat="45.609010" lon="4.727690">
						<ele>332</ele>
						<time>2025-06-16T13:50:15Z</time>
					</trkpt>
					<trkpt lat="45.608370" lon="4.728570">
						<ele>330</ele>
						<time>2025-06-16T13:52:13Z</time>
					</trkpt>
					<trkpt lat="45.608000" lon="4.729120">
						<ele>329</ele>
						<time>2025-06-16T13:53:25Z</time>
					</trkpt>
					<trkpt lat="45.607890" lon="4.729280">
						<ele>328</ele>
						<time>2025-06-16T13:53:46Z</time>
					</trkpt>
					<trkpt lat="45.607830" lon="4.729340">
						<ele>328</ele>
						<time>2025-06-16T13:53:55Z</time>
					</trkpt>
					<trkpt lat="45.607740" lon="4.729400">
						<ele>328</ele>
						<time>2025-06-16T13:54:09Z</time>
					</trkpt>
					<trkpt lat="45.607540" lon="4.729490">
						<ele>327</ele>
						<time>2025-06-16T13:54:37Z</time>
					</trkpt>
					<trkpt lat="45.607350" lon="4.729570">
						<ele>327</ele>
						<time>2025-06-16T13:55:03Z</time>
					</trkpt>
					<trkpt lat="45.607210" lon="4.729610">
						<ele>327</ele>
						<time>2025-06-16T13:55:22Z</time>
					</trkpt>
					<trkpt lat="45.607070" lon="4.729640">
						<ele>327</ele>
						<time>2025-06-16T13:55:41Z</time>
					</trkpt>
					<trkpt lat="45.607090" lon="4.729780">
						<ele>327</ele>
						<time>2025-06-16T13:55:54Z</time>
					</trkpt>
					<trkpt lat="45.607230" lon="4.730220">
						<ele>327</ele>
						<time>2025-06-16T13:56:39Z</time>
					</trkpt>
					<trkpt lat="45.607460" lon="4.730910">
						<ele>326</ele>
						<time>2025-06-16T13:57:51Z</time>
					</trkpt>
					<trkpt lat="45.607740" lon="4.731670">
						<ele>322</ele>
						<time>2025-06-16T13:59:11Z</time>
					</trkpt>
					<trkpt lat="45.607760" lon="4.731730">
						<ele>322</ele>
						<time>2025-06-16T13:59:17Z</time>
					</trkpt>
					<trkpt lat="45.607770" lon="4.731760">
						<ele>322</ele>
						<time>2025-06-16T13:59:20Z</time>
					</trkpt>
					<trkpt lat="45.607840" lon="4.732000">
						<ele>320</ele>
						<time>2025-06-16T13:59:44Z</time>
					</trkpt>
					<trkpt lat="45.607940" lon="4.732450">
						<ele>317</ele>
						<time>2025-06-16T14:00:29Z</time>
					</trkpt>
					<trkpt lat="45.607960" lon="4.732620">
						<ele>315</ele>
						<time>2025-06-16T14:00:45Z</time>
					</trkpt>
					<trkpt lat="45.607950" lon="4.732870">
						<ele>314</ele>
						<time>2025-06-16T14:01:08Z</time>
					</trkpt>
					<trkpt lat="45.607940" lon="4.732990">
						<ele>313</ele>
						<time>2025-06-16T14:01:19Z</time>
					</trkpt>
					<trkpt lat="45.607870" lon="4.733370">
						<ele>310</ele>
						<time>2025-06-16T14:01:56Z</time>
					</trkpt>
					<trkpt lat="45.607820" lon="4.733310">
						<ele>311</ele>
						<time>2025-06-16T14:02:05Z</time>
					</trkpt>
					<trkpt lat="45.607570" lon="4.733210">
						<ele>313</ele>
						<time>2025-06-16T14:02:39Z</time>
					</trkpt>
					<trkpt lat="45.606800" lon="4.732800">
						<ele>315</ele>
						<time>2025-06-16T14:04:29Z</time>
					</trkpt>
					<trkpt lat="45.606480" lon="4.732550">
						<ele>316</ele>
						<time>2025-06-16T14:05:18Z</time>
					</trkpt>
					<trkpt lat="45.606230" lon="4.732360">
						<ele>315</ele>
						<time>2025-06-16T14:05:55Z</time>
					</trkpt>
					<trkpt lat="45.606130" lon="4.732510">
						<ele>314</ele>
						<time>2025-06-16T14:06:15Z</time>
					</trkpt>
					<trkpt lat="45.606060" lon="4.732440">
						<ele>314</ele>
						<time>2025-06-16T14:06:26Z</time>
					</trkpt>
					<trkpt lat="45.605860" lon="4.732260">
						<ele>313</ele>
						<time>2025-06-16T14:06:58Z</time>
					</trkpt>
					<trkpt lat="45.605650" lon="4.732020">
						<ele>312</ele>
						<time>2025-06-16T14:07:34Z</time>
					</trkpt>
					<trkpt lat="45.605540" lon="4.731930">
						<ele>312</ele>
						<time>2025-06-16T14:07:51Z</time>
					</trkpt>
					<trkpt lat="45.605360" lon="4.731830">
						<ele>311</ele>
						<time>2025-06-16T14:08:16Z</time>
					</trkpt>
					<trkpt lat="45.604960" lon="4.731700">
						<ele>308</ele>
						<time>2025-06-16T14:09:11Z</time>
					</trkpt>
					<trkpt lat="45.604000" lon="4.731430">
						<ele>300</ele>
						<time>2025-06-16T14:11:22Z</time>
					</trkpt>
					<trkpt lat="45.603950" lon="4.731410">
						<ele>300</ele>
						<time>2025-06-16T14:11:29Z</time>
					</trkpt>
					<trkpt lat="45.603870" lon="4.732070">
						<ele>297</ele>
						<time>2025-06-16T14:12:31Z</time>
					</trkpt>
					<trkpt lat="45.603840" lon="4.732210">
						<ele>297</ele>
						<time>2025-06-16T14:12:45Z</time>
					</trkpt>
					<trkpt lat="45.603740" lon="4.732990">
						<ele>296</ele>
						<time>2025-06-16T14:13:59Z</time>
					</trkpt>
					<trkpt lat="45.603730" lon="4.733200">
						<ele>296</ele>
						<time>2025-06-16T14:14:18Z</time>
					</trkpt>
					<trkpt lat="45.603760" lon="4.733610">
						<ele>295</ele>
						<time>2025-06-16T14:14:57Z</time>
					</trkpt>
					<trkpt lat="45.603810" lon="4.734090">
						<ele>294</ele>
						<time>2025-06-16T14:15:42Z</time>
					</trkpt>
					<trkpt lat="45.603830" lon="4.734140">
						<ele>294</ele>
						<time>2025-06-16T14:15:48Z</time>
					</trkpt>
					<trkpt lat="45.603820" lon="4.734200">
						<ele>294</ele>
						<time>2025-06-16T14:15:53Z</time>
					</trkpt>
					<trkpt lat="45.603810" lon="4.734320">
						<ele>293</ele>
						<time>2025-06-16T14:16:05Z</time>
					</trkpt>
					<trkpt lat="45.603830" lon="4.734920">
						<ele>292</ele>
						<time>2025-06-16T14:17:01Z</time>
					</trkpt>
					<trkpt lat="45.603810" lon="4.735040">
						<ele>292</ele>
						<time>2025-06-16T14:17:12Z</time>
					</trkpt>
					<trkpt lat="45.603760" lon="4.735130">
						<ele>291</ele>
						<time>2025-06-16T14:17:23Z</time>
					</trkpt>
					<trkpt lat="45.603650" lon="4.735230">
						<ele>291</ele>
						<time>2025-06-16T14:17:40Z</time>
					</trkpt>
					<trkpt lat="45.603330" lon="4.735530">
						<ele>288</ele>
						<time>2025-06-16T14:18:31Z</time>
					</trkpt>
					<trkpt lat="45.602930" lon="4.736310">
						<ele>277</ele>
						<time>2025-06-16T14:20:02Z</time>
					</trkpt>
					<trkpt lat="45.602880" lon="4.736450">
						<ele>276</ele>
						<time>2025-06-16T14:20:16Z</time>
					</trkpt>
					<trkpt lat="45.602830" lon="4.736570">
						<ele>275</ele>
						<time>2025-06-16T14:20:29Z</time>
					</trkpt>
					<trkpt lat="45.602570" lon="4.737420">
						<ele>267</ele>
						<time>2025-06-16T14:21:56Z</time>
					</trkpt>
					<trkpt lat="45.602580" lon="4.737510">
						<ele>267</ele>
						<time>2025-06-16T14:22:05Z</time>
					</trkpt>
					<trkpt lat="45.602640" lon="4.737590">
						<ele>268</ele>
						<time>2025-06-16T14:22:15Z</time>
					</trkpt>
					<trkpt lat="45.602650" lon="4.737650">
						<ele>268</ele>
						<time>2025-06-16T14:22:21Z</time>
					</trkpt>
					<trkpt lat="45.602620" lon="4.737680">
						<ele>267</ele>
						<time>2025-06-16T14:22:26Z</time>
					</trkpt>
					<trkpt lat="45.602020" lon="4.737750">
						<ele>253</ele>
						<time>2025-06-16T14:23:46Z</time>
					</trkpt>
					<trkpt lat="45.601970" lon="4.737690">
						<ele>252</ele>
						<time>2025-06-16T14:23:55Z</time>
					</trkpt>
					<trkpt lat="45.601950" lon="4.737540">
						<ele>251</ele>
						<time>2025-06-16T14:24:09Z</time>
					</trkpt>
					<trkpt lat="45.601940" lon="4.737510">
						<ele>251</ele>
						<time>2025-06-16T14:24:13Z</time>
					</trkpt>
					<trkpt lat="45.601900" lon="4.737510">
						<ele>250</ele>
						<time>2025-06-16T14:24:18Z</time>
					</trkpt>
					<trkpt lat="45.601820" lon="4.737590">
						<ele>248</ele>
						<time>2025-06-16T14:24:31Z</time>
					</trkpt>
					<trkpt lat="45.601460" lon="4.737780">
						<ele>241</ele>
						<time>2025-06-16T14:25:22Z</time>
					</trkpt>
					<trkpt lat="45.600860" lon="4.738130">
						<ele>231</ele>
						<time>2025-06-16T14:26:49Z</time>
					</trkpt>
					<trkpt lat="45.600720" lon="4.738370">
						<ele>230</ele>
						<time>2025-06-16T14:27:18Z</time>
					</trkpt>
					<trkpt lat="45.600470" lon="4.738570">
						<ele>227</ele>
						<time>2025-06-16T14:27:56Z</time>
					</trkpt>
					<trkpt lat="45.600310" lon="4.738650">
						<ele>225</ele>
						<time>2025-06-16T14:28:19Z</time>
					</trkpt>
					<trkpt lat="45.600260" lon="4.738740">
						<ele>224</ele>
						<time>2025-06-16T14:28:29Z</time>
					</trkpt>
					<trkpt lat="45.600280" lon="4.738830">
						<ele>224</ele>
						<time>2025-06-16T14:28:38Z</time>
					</trkpt>
					<trkpt lat="45.600400" lon="4.738970">
						<ele>223</ele>
						<time>2025-06-16T14:28:59Z</time>
					</trkpt>
					<trkpt lat="45.600510" lon="4.739210">
						<ele>222</ele>
						<time>2025-06-16T14:29:26Z</time>
					</trkpt>
					<trkpt lat="45.600630" lon="4.739320">
						<ele>222</ele>
						<time>2025-06-16T14:29:45Z</time>
					</trkpt>
					<trkpt lat="45.600640" lon="4.739400">
						<ele>221</ele>
						<time>2025-06-16T14:29:52Z</time>
					</trkpt>
					<trkpt lat="45.600570" lon="4.739430">
						<ele>221</ele>
						<time>2025-06-16T14:30:02Z</time>
					</trkpt>
					<trkpt lat="45.600560" lon="4.739420">
						<ele>221</ele>
						<time>2025-06-16T14:30:04Z</time>
					</trkpt>
					<trkpt lat="45.600110" lon="4.739150">
						<ele>219</ele>
						<time>2025-06-16T14:31:09Z</time>
					</trkpt>
					<trkpt lat="45.599970" lon="4.739000">
						<ele>220</ele>
						<time>2025-06-16T14:31:32Z</time>
					</trkpt>
					<trkpt lat="45.599940" lon="4.739180">
						<ele>219</ele>
						<time>2025-06-16T14:31:49Z</time>
					</trkpt>
					<trkpt lat="45.599970" lon="4.739000">
						<ele>220</ele>
						<time>2025-06-16T14:32:07Z</time>
					</trkpt>
					<trkpt lat="45.599920" lon="4.738970">
						<ele>221</ele>
						<time>2025-06-16T14:32:14Z</time>
					</trkpt>
					<trkpt lat="45.599920" lon="4.738970">
						<ele>221</ele>
						<time>2025-06-16T14:32:14Z</time>
					</trkpt>
					<trkpt lat="45.599590" lon="4.738990">
						<ele>223</ele>
						<time>2025-06-16T14:32:58Z</time>
					</trkpt>
					<trkpt lat="45.599290" lon="4.739020">
						<ele>226</ele>
						<time>2025-06-16T14:33:38Z</time>
					</trkpt>
					<trkpt lat="45.599090" lon="4.739030">
						<ele>228</ele>
						<time>2025-06-16T14:34:05Z</time>
					</trkpt>
					<trkpt lat="45.598860" lon="4.738990">
						<ele>230</ele>
						<time>2025-06-16T14:34:36Z</time>
					</trkpt>
					<trkpt lat="45.598600" lon="4.738850">
						<ele>233</ele>
						<time>2025-06-16T14:35:13Z</time>
					</trkpt>
					<trkpt lat="45.598600" lon="4.738850">
						<ele>233</ele>
						<time>2025-06-16T14:35:13Z</time>
					</trkpt>
					<trkpt lat="45.598430" lon="4.738800">
						<ele>235</ele>
						<time>2025-06-16T14:35:36Z</time>
					</trkpt>
					<trkpt lat="45.598210" lon="4.738630">
						<ele>238</ele>
						<time>2025-06-16T14:36:09Z</time>
					</trkpt>
					<trkpt lat="45.598010" lon="4.738450">
						<ele>240</ele>
						<time>2025-06-16T14:36:41Z</time>
					</trkpt>
					<trkpt lat="45.597790" lon="4.738200">
						<ele>243</ele>
						<time>2025-06-16T14:37:18Z</time>
					</trkpt>
					<trkpt lat="45.597460" lon="4.737970">
						<ele>245</ele>
						<time>2025-06-16T14:38:07Z</time>
					</trkpt>
					<trkpt lat="45.597350" lon="4.737830">
						<ele>246</ele>
						<time>2025-06-16T14:38:27Z</time>
					</trkpt>
					<trkpt lat="45.597310" lon="4.737780">
						<ele>246</ele>
						<time>2025-06-16T14:38:34Z</time>
					</trkpt>
					<trkpt lat="45.597130" lon="4.737360">
						<ele>247</ele>
						<time>2025-06-16T14:39:20Z</time>
					</trkpt>
					<trkpt lat="45.597060" lon="4.737080">
						<ele>249</ele>
						<time>2025-06-16T14:39:48Z</time>
					</trkpt>
					<trkpt lat="45.597040" lon="4.736780">
						<ele>251</ele>
						<time>2025-06-16T14:40:16Z</time>
					</trkpt>
					<trkpt lat="45.596980" lon="4.736470">
						<ele>252</ele>
						<time>2025-06-16T14:40:46Z</time>
					</trkpt>
					<trkpt lat="45.596930" lon="4.736010">
						<ele>254</ele>
						<time>2025-06-16T14:41:30Z</time>
					</trkpt>
					<trkpt lat="45.596730" lon="4.735500">
						<ele>252</ele>
						<time>2025-06-16T14:42:24Z</time>
					</trkpt>
					<trkpt lat="45.596640" lon="4.735180">
						<ele>252</ele>
						<time>2025-06-16T14:42:56Z</time>
					</trkpt>
					<trkpt lat="45.596540" lon="4.734700">
						<ele>255</ele>
						<time>2025-06-16T14:43:43Z</time>
					</trkpt>
					<trkpt lat="45.596300" lon="4.734040">
						<ele>258</ele>
						<time>2025-06-16T14:44:53Z</time>
					</trkpt>
					<trkpt lat="45.596220" lon="4.733710">
						<ele>259</ele>
						<time>2025-06-16T14:45:25Z</time>
					</trkpt>
					<trkpt lat="45.596290" lon="4.733390">
						<ele>260</ele>
						<time>2025-06-16T14:45:56Z</time>
					</trkpt>
					<trkpt lat="45.596230" lon="4.733110">
						<ele>261</ele>
						<time>2025-06-16T14:46:24Z</time>
					</trkpt>
					<trkpt lat="45.596170" lon="4.732880">
						<ele>262</ele>
						<time>2025-06-16T14:46:47Z</time>
					</trkpt>
					<trkpt lat="45.596050" lon="4.732330">
						<ele>263</ele>
						<time>2025-06-16T14:47:40Z</time>
					</trkpt>
					<trkpt lat="45.595820" lon="4.731650">
						<ele>265</ele>
						<time>2025-06-16T14:48:51Z</time>
					</trkpt>
					<trkpt lat="45.595700" lon="4.731340">
						<ele>269</ele>
						<time>2025-06-16T14:49:24Z</time>
					</trkpt>
					<trkpt lat="45.595580" lon="4.731090">
						<ele>271</ele>
						<time>2025-06-16T14:49:52Z</time>
					</trkpt>
					<trkpt lat="45.595380" lon="4.730700">
						<ele>271</ele>
						<time>2025-06-16T14:50:38Z</time>
					</trkpt>
					<trkpt lat="45.595320" lon="4.730470">
						<ele>271</ele>
						<time>2025-06-16T14:51:00Z</time>
					</trkpt>
					<trkpt lat="45.595330" lon="4.730470">
						<ele>271</ele>
						<time>2025-06-16T14:51:02Z</time>
					</trkpt>
					<trkpt lat="45.595370" lon="4.730450">
						<ele>272</ele>
						<time>2025-06-16T14:51:07Z</time>
					</trkpt>
					<trkpt lat="45.595990" lon="4.730800">
						<ele>276</ele>
						<time>2025-06-16T14:52:36Z</time>
					</trkpt>
					<trkpt lat="45.596000" lon="4.730850">
						<ele>276</ele>
						<time>2025-06-16T14:52:41Z</time>
					</trkpt>
					<trkpt lat="45.595990" lon="4.730800">
						<ele>276</ele>
						<time>2025-06-16T14:52:46Z</time>
					</trkpt>
					<trkpt lat="45.596140" lon="4.730380">
						<ele>279</ele>
						<time>2025-06-16T14:53:30Z</time>
					</trkpt>
					<trkpt lat="45.596200" lon="4.730050">
						<ele>280</ele>
						<time>2025-06-16T14:54:02Z</time>
					</trkpt>
					<trkpt lat="45.596290" lon="4.729590">
						<ele>280</ele>
						<time>2025-06-16T14:54:47Z</time>
					</trkpt>
					<trkpt lat="45.596310" lon="4.729410">
						<ele>280</ele>
						<time>2025-06-16T14:55:04Z</time>
					</trkpt>
					<trkpt lat="45.596310" lon="4.729150">
						<ele>280</ele>
						<time>2025-06-16T14:55:28Z</time>
					</trkpt>
					<trkpt lat="45.596310" lon="4.728920">
						<ele>280</ele>
						<time>2025-06-16T14:55:49Z</time>
					</trkpt>
					<trkpt lat="45.596310" lon="4.728910">
						<ele>280</ele>
						<time>2025-06-16T14:55:50Z</time>
					</trkpt>
					<trkpt lat="45.596350" lon="4.728580">
						<ele>281</ele>
						<time>2025-06-16T14:56:22Z</time>
					</trkpt>
					<trkpt lat="45.596370" lon="4.728260">
						<ele>282</ele>
						<time>2025-06-16T14:56:52Z</time>
					</trkpt>
					<trkpt lat="45.596310" lon="4.727820">
						<ele>283</ele>
						<time>2025-06-16T14:57:33Z</time>
					</trkpt>
					<trkpt lat="45.596330" lon="4.727670">
						<ele>283</ele>
						<time>2025-06-16T14:57:48Z</time>
					</trkpt>
					<trkpt lat="45.596390" lon="4.727500">
						<ele>284</ele>
						<time>2025-06-16T14:58:05Z</time>
					</trkpt>
					<trkpt lat="45.596530" lon="4.727240">
						<ele>285</ele>
						<time>2025-06-16T14:58:36Z</time>
					</trkpt>
					<trkpt lat="45.596580" lon="4.726960">
						<ele>286</ele>
						<time>2025-06-16T14:59:03Z</time>
					</trkpt>
					<trkpt lat="45.596600" lon="4.726870">
						<ele>287</ele>
						<time>2025-06-16T14:59:12Z</time>
					</trkpt>
					<trkpt lat="45.596650" lon="4.726730">
						<ele>288</ele>
						<time>2025-06-16T14:59:27Z</time>
					</trkpt>
					<trkpt lat="45.596690" lon="4.726460">
						<ele>289</ele>
						<time>2025-06-16T14:59:52Z</time>
					</trkpt>
					<trkpt lat="45.596760" lon="4.725920">
						<ele>292</ele>
						<time>2025-06-16T15:00:44Z</time>
					</trkpt>
					<trkpt lat="45.596820" lon="4.725450">
						<ele>293</ele>
						<time>2025-06-16T15:01:28Z</time>
					</trkpt>
					<trkpt lat="45.596830" lon="4.725380">
						<ele>293</ele>
						<time>2025-06-16T15:01:35Z</time>
					</trkpt>
					<trkpt lat="45.596880" lon="4.725050">
						<ele>293</ele>
						<time>2025-06-16T15:02:06Z</time>
					</trkpt>
					<trkpt lat="45.596920" lon="4.725030">
						<ele>293</ele>
						<time>2025-06-16T15:02:12Z</time>
					</trkpt>
					<trkpt lat="45.596960" lon="4.725000">
						<ele>293</ele>
						<time>2025-06-16T15:02:18Z</time>
					</trkpt>
					<trkpt lat="45.597200" lon="4.725020">
						<ele>294</ele>
						<time>2025-06-16T15:02:50Z</time>
					</trkpt>
					<trkpt lat="45.597270" lon="4.724960">
						<ele>294</ele>
						<time>2025-06-16T15:03:01Z</time>
					</trkpt>
					<trkpt lat="45.597300" lon="4.724850">
						<ele>294</ele>
						<time>2025-06-16T15:03:12Z</time>
					</trkpt>
					<trkpt lat="45.597330" lon="4.724670">
						<ele>294</ele>
						<time>2025-06-16T15:03:29Z</time>
					</trkpt>
					<trkpt lat="45.597360" lon="4.724050">
						<ele>294</ele>
						<time>2025-06-16T15:04:27Z</time>
					</trkpt>
					<trkpt lat="45.597400" lon="4.724070">
						<ele>294</ele>
						<time>2025-06-16T15:04:33Z</time>
					</trkpt>
					<trkpt lat="45.598840" lon="4.724870">
						<ele>289</ele>
						<time>2025-06-16T15:07:59Z</time>
					</trkpt>
					<trkpt lat="45.599100" lon="4.724920">
						<ele>288</ele>
						<time>2025-06-16T15:08:34Z</time>
					</trkpt>
					<trkpt lat="45.599770" lon="4.724910">
						<ele>282</ele>
						<time>2025-06-16T15:10:04Z</time>
					</trkpt>
					<trkpt lat="45.599940" lon="4.724920">
						<ele>280</ele>
						<time>2025-06-16T15:10:26Z</time>
					</trkpt>
					<trkpt lat="45.600190" lon="4.724980">
						<ele>278</ele>
						<time>2025-06-16T15:11:00Z</time>
					</trkpt>
					<trkpt lat="45.600240" lon="4.724990">
						<ele>277</ele>
						<time>2025-06-16T15:11:07Z</time>
					</trkpt>
					<trkpt lat="45.600310" lon="4.724990">
						<ele>276</ele>
						<time>2025-06-16T15:11:16Z</time>
					</trkpt>
					<trkpt lat="45.600440" lon="4.724960">
						<ele>274</ele>
						<time>2025-06-16T15:11:34Z</time>
					</trkpt>
					<trkpt lat="45.600530" lon="4.724970">
						<ele>273</ele>
						<time>2025-06-16T15:11:46Z</time>
					</trkpt>
					<trkpt lat="45.600640" lon="4.725030">
						<ele>272</ele>
						<time>2025-06-16T15:12:02Z</time>
					</trkpt>
					<trkpt lat="45.600700" lon="4.725020">
						<ele>271</ele>
						<time>2025-06-16T15:12:10Z</time>
					</trkpt>
					<trkpt lat="45.600760" lon="4.724950">
						<ele>271</ele>
						<time>2025-06-16T15:12:20Z</time>
					</trkpt>
					<trkpt lat="45.600870" lon="4.724910">
						<ele>269</ele>
						<time>2025-06-16T15:12:35Z</time>
					</trkpt>
					<trkpt lat="45.600950" lon="4.724810">
						<ele>267</ele>
						<time>2025-06-16T15:12:49Z</time>
					</trkpt>
					<trkpt lat="45.601130" lon="4.724730">
						<ele>265</ele>
						<time>2025-06-16T15:13:15Z</time>
					</trkpt>
					<trkpt lat="45.601410" lon="4.724740">
						<ele>263</ele>
						<time>2025-06-16T15:13:52Z</time>
					</trkpt>
					<trkpt lat="45.601630" lon="4.724800">
						<ele>260</ele>
						<time>2025-06-16T15:14:22Z</time>
					</trkpt>
					<trkpt lat="45.601740" lon="4.724790">
						<ele>261</ele>
						<time>2025-06-16T15:14:36Z</time>
					</trkpt>
					<trkpt lat="45.601800" lon="4.724750">
						<ele>262</ele>
						<time>2025-06-16T15:14:45Z</time>
					</trkpt>
					<trkpt lat="45.601830" lon="4.724620">
						<ele>263</ele>
						<time>2025-06-16T15:14:58Z</time>
					</trkpt>
					<trkpt lat="45.601880" lon="4.724580">
						<ele>264</ele>
						<time>2025-06-16T15:15:06Z</time>
					</trkpt>
					<trkpt lat="45.601930" lon="4.724650">
						<ele>264</ele>
						<time>2025-06-16T15:15:15Z</time>
					</trkpt>
					<trkpt lat="45.601930" lon="4.724690">
						<ele>263</ele>
						<time>2025-06-16T15:15:19Z</time>
					</trkpt>
					<trkpt lat="45.601920" lon="4.724830">
						<ele>262</ele>
						<time>2025-06-16T15:15:32Z</time>
					</trkpt>
					<trkpt lat="45.601950" lon="4.724970">
						<ele>262</ele>
						<time>2025-06-16T15:15:46Z</time>
					</trkpt>
					<trkpt lat="45.602010" lon="4.725150">
						<ele>264</ele>
						<time>2025-06-16T15:16:04Z</time>
					</trkpt>
					<trkpt lat="45.601970" lon="4.725290">
						<ele>264</ele>
						<time>2025-06-16T15:16:18Z</time>
					</trkpt>
					<trkpt lat="45.601590" lon="4.725560">
						<ele>262</ele>
						<time>2025-06-16T15:17:15Z</time>
					</trkpt>
					<trkpt lat="45.601470" lon="4.725730">
						<ele>264</ele>
						<time>2025-06-16T15:17:38Z</time>
					</trkpt>
					<trkpt lat="45.601470" lon="4.725830">
						<ele>264</ele>
						<time>2025-06-16T15:17:47Z</time>
					</trkpt>
					<trkpt lat="45.601520" lon="4.726050">
						<ele>265</ele>
						<time>2025-06-16T15:18:08Z</time>
					</trkpt>
					<trkpt lat="45.601540" lon="4.726290">
						<ele>267</ele>
						<time>2025-06-16T15:18:31Z</time>
					</trkpt>
					<trkpt lat="45.601520" lon="4.726360">
						<ele>267</ele>
						<time>2025-06-16T15:18:38Z</time>
					</trkpt>
					<trkpt lat="45.601460" lon="4.726450">
						<ele>267</ele>
						<time>2025-06-16T15:18:50Z</time>
					</trkpt>
					<trkpt lat="45.601470" lon="4.726480">
						<ele>267</ele>
						<time>2025-06-16T15:18:53Z</time>
					</trkpt>
					<trkpt lat="45.601580" lon="4.726480">
						<ele>268</ele>
						<time>2025-06-16T15:19:07Z</time>
					</trkpt>
					<trkpt lat="45.601660" lon="4.726580">
						<ele>270</ele>
						<time>2025-06-16T15:19:22Z</time>
					</trkpt>
					<trkpt lat="45.601710" lon="4.726730">
						<ele>272</ele>
						<time>2025-06-16T15:19:37Z</time>
					</trkpt>
					<trkpt lat="45.601710" lon="4.726730">
						<ele>272</ele>
						<time>2025-06-16T15:19:37Z</time>
					</trkpt>
					<trkpt lat="45.601740" lon="4.726820">
						<ele>273</ele>
						<time>2025-06-16T15:19:46Z</time>
					</trkpt>
					<trkpt lat="45.601820" lon="4.726840">
						<ele>274</ele>
						<time>2025-06-16T15:19:57Z</time>
					</trkpt>
					<trkpt lat="45.601880" lon="4.726880">
						<ele>276</ele>
						<time>2025-06-16T15:20:06Z</time>
					</trkpt>
					<trkpt lat="45.601910" lon="4.726950">
						<ele>276</ele>
						<time>2025-06-16T15:20:14Z</time>
					</trkpt>
					<trkpt lat="45.602120" lon="4.727110">
						<ele>280</ele>
						<time>2025-06-16T15:20:46Z</time>
					</trkpt>
					<trkpt lat="45.602150" lon="4.727180">
						<ele>280</ele>
						<time>2025-06-16T15:20:53Z</time>
					</trkpt>
					<trkpt lat="45.602230" lon="4.727460">
						<ele>282</ele>
						<time>2025-06-16T15:21:21Z</time>
					</trkpt>
					<trkpt lat="45.602300" lon="4.727730">
						<ele>284</ele>
						<time>2025-06-16T15:21:48Z</time>
					</trkpt>
					<trkpt lat="45.602360" lon="4.727910">
						<ele>285</ele>
						<time>2025-06-16T15:22:07Z</time>
					</trkpt>
					<trkpt lat="45.602440" lon="4.728010">
						<ele>286</ele>
						<time>2025-06-16T15:22:21Z</time>
					</trkpt>
					<trkpt lat="45.602510" lon="4.728090">
						<ele>286</ele>
						<time>2025-06-16T15:22:33Z</time>
					</trkpt>
					<trkpt lat="45.602640" lon="4.728170">
						<ele>288</ele>
						<time>2025-06-16T15:22:52Z</time>
					</trkpt>
					<trkpt lat="45.602640" lon="4.728170">
						<ele>288</ele>
						<time>2025-06-16T15:22:52Z</time>
					</trkpt>
					<trkpt lat="45.602660" lon="4.728190">
						<ele>288</ele>
						<time>2025-06-16T15:22:55Z</time>
					</trkpt>
					<trkpt lat="45.602700" lon="4.728260">
						<ele>288</ele>
						<time>2025-06-16T15:23:04Z</time>
					</trkpt>
					<trkpt lat="45.602760" lon="4.728350">
						<ele>289</ele>
						<time>2025-06-16T15:23:15Z</time>
					</trkpt>
					<trkpt lat="45.602840" lon="4.728540">
						<ele>290</ele>
						<time>2025-06-16T15:23:36Z</time>
					</trkpt>
					<trkpt lat="45.602920" lon="4.728890">
						<ele>292</ele>
						<time>2025-06-16T15:24:10Z</time>
					</trkpt>
					<trkpt lat="45.602930" lon="4.728950">
						<ele>292</ele>
						<time>2025-06-16T15:24:16Z</time>
					</trkpt>
					<trkpt lat="45.602950" lon="4.729080">
						<ele>293</ele>
						<time>2025-06-16T15:24:29Z</time>
					</trkpt>
					<trkpt lat="45.603130" lon="4.729440">
						<ele>295</ele>
						<time>2025-06-16T15:25:10Z</time>
					</trkpt>
					<trkpt lat="45.603170" lon="4.729710">
						<ele>295</ele>
						<time>2025-06-16T15:25:36Z</time>
					</trkpt>
					<trkpt lat="45.603200" lon="4.729810">
						<ele>295</ele>
						<time>2025-06-16T15:25:46Z</time>
					</trkpt>
					<trkpt lat="45.603250" lon="4.729900">
						<ele>296</ele>
						<time>2025-06-16T15:25:57Z</time>
					</trkpt>
					<trkpt lat="45.603400" lon="4.730010">
						<ele>297</ele>
						<time>2025-06-16T15:26:19Z</time>
					</trkpt>
					<trkpt lat="45.603980" lon="4.730380">
						<ele>301</ele>
						<time>2025-06-16T15:27:44Z</time>
					</trkpt>
					<trkpt lat="45.604030" lon="4.730410">
						<ele>302</ele>
						<time>2025-06-16T15:27:51Z</time>
					</trkpt>
					<trkpt lat="45.604020" lon="4.730550">
						<ele>302</ele>
						<time>2025-06-16T15:28:04Z</time>
					</trkpt>
					<trkpt lat="45.603800" lon="4.731120">
						<ele>299</ele>
						<time>2025-06-16T15:29:05Z</time>
					</trkpt>
					<trkpt lat="45.603780" lon="4.731170">
						<ele>299</ele>
						<time>2025-06-16T15:29:10Z</time>
					</trkpt>
					<trkpt lat="45.603790" lon="4.731240">
						<ele>299</ele>
						<time>2025-06-16T15:29:17Z</time>
					</trkpt>
					<trkpt lat="45.603840" lon="4.731330">
						<ele>299</ele>
						<time>2025-06-16T15:29:28Z</time>
					</trkpt>
					<trkpt lat="45.603850" lon="4.731350">
						<ele>299</ele>
						<time>2025-06-16T15:29:30Z</time>
					</trkpt>
					<trkpt lat="45.603950" lon="4.731410">
						<ele>300</ele>
						<time>2025-06-16T15:29:44Z</time>
					</trkpt>
					<trkpt lat="45.604960" lon="4.731700">
						<ele>308</ele>
						<time>2025-06-16T15:32:02Z</time>
					</trkpt>
					<trkpt lat="45.605360" lon="4.731830">
						<ele>311</ele>
						<time>2025-06-16T15:32:57Z</time>
					</trkpt>
					<trkpt lat="45.605540" lon="4.731930">
						<ele>312</ele>
						<time>2025-06-16T15:33:22Z</time>
					</trkpt>
					<trkpt lat="45.605650" lon="4.732020">
						<ele>312</ele>
						<time>2025-06-16T15:33:39Z</time>
					</trkpt>
					<trkpt lat="45.605860" lon="4.732260">
						<ele>313</ele>
						<time>2025-06-16T15:34:15Z</time>
					</trkpt>
					<trkpt lat="45.606060" lon="4.732440">
						<ele>314</ele>
						<time>2025-06-16T15:34:47Z</time>
					</trkpt>
					<trkpt lat="45.606130" lon="4.732510">
						<ele>314</ele>
						<time>2025-06-16T15:34:58Z</time>
					</trkpt>
					<trkpt lat="45.606230" lon="4.732360">
						<ele>315</ele>
						<time>2025-06-16T15:35:18Z</time>
					</trkpt>
					<trkpt lat="45.606480" lon="4.732550">
						<ele>316</ele>
						<time>2025-06-16T15:35:55Z</time>
					</trkpt>
					<trkpt lat="45.606800" lon="4.732800">
						<ele>315</ele>
						<time>2025-06-16T15:36:44Z</time>
					</trkpt>
					<trkpt lat="45.607570" lon="4.733210">
						<ele>313</ele>
						<time>2025-06-16T15:38:34Z</time>
					</trkpt>
					<trkpt lat="45.607820" lon="4.733310">
						<ele>311</ele>
						<time>2025-06-16T15:39:08Z</time>
					</trkpt>
					<trkpt lat="45.607870" lon="4.733370">
						<ele>310</ele>
						<time>2025-06-16T15:39:17Z</time>
					</trkpt>
					<trkpt lat="45.607850" lon="4.733540">
						<ele>310</ele>
						<time>2025-06-16T15:39:33Z</time>
					</trkpt>
					<trkpt lat="45.607870" lon="4.733370">
						<ele>310</ele>
						<time>2025-06-16T15:39:49Z</time>
					</trkpt>
					<trkpt lat="45.607940" lon="4.732990">
						<ele>313</ele>
						<time>2025-06-16T15:40:26Z</time>
					</trkpt>
					<trkpt lat="45.607950" lon="4.732870">
						<ele>314</ele>
						<time>2025-06-16T15:40:37Z</time>
					</trkpt>
					<trkpt lat="45.607960" lon="4.732620">
						<ele>315</ele>
						<time>2025-06-16T15:41:01Z</time>
					</trkpt>
					<trkpt lat="45.607940" lon="4.732450">
						<ele>317</ele>
						<time>2025-06-16T15:41:17Z</time>
					</trkpt>
					<trkpt lat="45.607840" lon="4.732000">
						<ele>320</ele>
						<time>2025-06-16T15:42:01Z</time>
					</trkpt>
					<trkpt lat="45.607770" lon="4.731760">
						<ele>322</ele>
						<time>2025-06-16T15:42:25Z</time>
					</trkpt>
					<trkpt lat="45.607740" lon="4.731670">
						<ele>322</ele>
						<time>2025-06-16T15:42:34Z</time>
					</trkpt>
					<trkpt lat="45.607460" lon="4.730910">
						<ele>326</ele>
						<time>2025-06-16T15:43:54Z</time>
					</trkpt>
					<trkpt lat="45.607230" lon="4.730220">
						<ele>327</ele>
						<time>2025-06-16T15:45:06Z</time>
					</trkpt>
					<trkpt lat="45.607090" lon="4.729780">
						<ele>327</ele>
						<time>2025-06-16T15:45:51Z</time>
					</trkpt>
					<trkpt lat="45.607070" lon="4.729640">
						<ele>327</ele>
						<time>2025-06-16T15:46:04Z</time>
					</trkpt>
					<trkpt lat="45.607210" lon="4.729610">
						<ele>327</ele>
						<time>2025-06-16T15:46:23Z</time>
					</trkpt>
					<trkpt lat="45.607350" lon="4.729570">
						<ele>327</ele>
						<time>2025-06-16T15:46:42Z</time>
					</trkpt>
					<trkpt lat="45.607540" lon="4.729490">
						<ele>327</ele>
						<time>2025-06-16T15:47:09Z</time>
					</trkpt>
					<trkpt lat="45.607740" lon="4.729400">
						<ele>328</ele>
						<time>2025-06-16T15:47:37Z</time>
					</trkpt>
					<trkpt lat="45.607830" lon="4.729340">
						<ele>328</ele>
						<time>2025-06-16T15:47:50Z</time>
					</trkpt>
					<trkpt lat="45.607890" lon="4.729280">
						<ele>328</ele>
						<time>2025-06-16T15:48:00Z</time>
					</trkpt>
					<trkpt lat="45.608000" lon="4.729120">
						<ele>329</ele>
						<time>2025-06-16T15:48:21Z</time>
					</trkpt>
					<trkpt lat="45.608370" lon="4.728570">
						<ele>330</ele>
						<time>2025-06-16T15:49:32Z</time>
					</trkpt>
					<trkpt lat="45.609010" lon="4.727690">
						<ele>332</ele>
						<time>2025-06-16T15:51:30Z</time>
					</trkpt>
					<trkpt lat="45.609090" lon="4.727570">
						<ele>332</ele>
						<time>2025-06-16T15:51:46Z</time>
					</trkpt>
					<trkpt lat="45.609150" lon="4.727450">
						<ele>332</ele>
						<time>2025-06-16T15:52:00Z</time>
					</trkpt>
					<trkpt lat="45.609270" lon="4.727160">
						<ele>332</ele>
						<time>2025-06-16T15:52:31Z</time>
					</trkpt>
					<trkpt lat="45.609310" lon="4.727060">
						<ele>332</ele>
						<time>2025-06-16T15:52:42Z</time>
					</trkpt>
					<trkpt lat="45.609330" lon="4.726990">
						<ele>332</ele>
						<time>2025-06-16T15:52:49Z</time>
					</trkpt>
					<trkpt lat="45.609310" lon="4.727060">
						<ele>332</ele>
						<time>2025-06-16T15:52:56Z</time>
					</trkpt>
					<trkpt lat="45.609420" lon="4.727110">
						<ele>332</ele>
						<time>2025-06-16T15:53:11Z</time>
					</trkpt>
					<trkpt lat="45.609460" lon="4.727100">
						<ele>331</ele>
						<time>2025-06-16T15:53:17Z</time>
					</trkpt>
					<trkpt lat="45.609490" lon="4.727070">
						<ele>331</ele>
						<time>2025-06-16T15:53:22Z</time>
					</trkpt>
					<trkpt lat="45.609520" lon="4.726930">
						<ele>332</ele>
						<time>2025-06-16T15:53:35Z</time>
					</trkpt>
					</trkseg>
				</trk>
			</gpx>